Time;durP1;ratioP1;P1;durP2;ratioP2;P2;SDS_P1;SDS_P2;PMS_P1;PMS_P2;Temp;Humidity;BMP_temperature;BMP_pressure;BME280_temperature;BME280_humidity;BME280_pressure;Samples;Min_cycle;Max_cycle;Signal;HPM_P1;HPM_P2
2022/11/26 00:01:13;;;;;;;32.50;10.57;;;8.20;99.90;;;;;;4982938;28;20122;-75
2022/11/26 00:03:41;;;;;;;28.02;10.10;;;8.10;99.90;;;;;;4986933;28;20022;-76
2022/11/26 00:06:23;;;;;;;29.35;10.30;;;8.10;99.90;;;;;;4985840;28;20023;-75
2022/11/26 00:08:48;;;;;;;33.83;10.40;;;8.20;99.90;;;;;;4985823;28;20027;-76
2022/11/26 00:11:15;;;;;;;28.52;9.80;;;8.20;99.90;;;;;;4988592;28;20384;-75
2022/11/26 00:13:44;;;;;;;33.63;10.73;;;8.10;99.90;;;;;;4988603;28;20033;-76
2022/11/26 00:16:13;;;;;;;28.45;10.52;;;8.10;99.90;;;;;;4984512;28;20037;-76
2022/11/26 00:18:39;;;;;;;22.20;10.25;;;8.10;99.90;;;;;;4981333;28;20459;-76
2022/11/26 00:21:12;;;;;;;25.08;11.25;;;8.00;99.90;;;;;;4995029;28;20389;-79
2022/11/26 00:23:38;;;;;;;30.42;10.57;;;8.00;99.90;;;;;;4989256;28;20034;-75
2022/11/26 00:26:12;;;;;;;26.70;11.13;;;7.90;99.90;;;;;;4982430;28;20755;-75
2022/11/26 00:29:07;;;;;;;39.15;11.55;;;7.90;99.90;;;;;;4987025;28;20077;-75
2022/11/26 00:31:33;;;;;;;30.85;11.13;;;7.80;99.90;;;;;;4978764;28;20027;-75
2022/11/26 00:33:59;;;;;;;23.25;10.68;;;7.80;99.90;;;;;;4988887;28;20029;-74
2022/11/26 00:36:31;;;;;;;23.75;9.10;;;7.80;99.90;;;;;;4984161;28;20022;-75
2022/11/26 00:39:06;;;;;;;26.77;10.48;;;7.80;99.90;;;;;;4976789;28;20073;-72
2022/11/26 00:41:39;;;;;;;37.78;10.38;;;7.80;99.90;;;;;;4983562;28;20042;-75
2022/11/26 00:44:25;;;;;;;25.83;9.57;;;7.80;99.90;;;;;;4985811;28;20023;-75
2022/11/26 00:46:53;;;;;;;28.35;9.55;;;7.90;99.90;;;;;;4979587;28;20039;-75
2022/11/26 00:49:22;;;;;;;26.90;10.15;;;7.80;99.90;;;;;;4982508;28;20035;-74
2022/11/26 00:51:48;;;;;;;27.00;9.82;;;7.90;99.90;;;;;;4983741;28;20032;-75
2022/11/26 00:54:16;;;;;;;26.42;9.45;;;7.80;99.90;;;;;;4979511;28;20023;-75
2022/11/26 00:56:45;;;;;;;32.20;9.60;;;7.80;99.90;;;;;;4986470;28;20022;-75
2022/11/26 00:59:15;;;;;;;46.70;10.32;;;7.80;99.90;;;;;;4983683;28;20022;-74
2022/11/26 01:01:41;;;;;;;23.25;9.73;;;7.80;99.90;;;;;;4990383;28;20045;-75
2022/11/26 01:04:07;;;;;;;26.58;10.20;;;7.80;99.90;;;;;;4987068;28;20026;-75
2022/11/26 01:06:36;;;;;;;31.70;10.40;;;7.80;99.90;;;;;;4983882;28;20443;-73
2022/11/26 01:09:04;;;;;;;24.85;9.50;;;7.80;99.90;;;;;;4986093;28;20030;-75
2022/11/26 01:11:32;;;;;;;28.98;10.07;;;7.90;99.90;;;;;;4984637;28;20038;-76
2022/11/26 01:13:58;;;;;;;26.25;10.38;;;7.80;99.90;;;;;;4983523;28;20443;-75
2022/11/26 01:16:30;;;;;;;30.50;9.82;;;7.80;99.90;;;;;;4987296;28;20113;-75
2022/11/26 01:18:58;;;;;;;26.33;9.63;;;7.90;99.90;;;;;;4984467;28;20465;-74
2022/11/26 01:21:26;;;;;;;34.47;10.82;;;7.90;99.90;;;;;;4983664;28;20048;-74
2022/11/26 01:23:52;;;;;;;35.60;10.27;;;7.90;99.90;;;;;;4997455;28;20041;-75
2022/11/26 01:26:23;;;;;;;29.80;10.25;;;7.90;99.90;;;;;;4984586;28;20623;-74
2022/11/26 01:28:50;;;;;;;26.17;10.45;;;7.80;99.90;;;;;;4996166;28;20034;-75
2022/11/26 01:31:25;;;;;;;27.25;10.32;;;7.80;99.90;;;;;;4988767;28;20048;-75
2022/11/26 01:33:51;;;;;;;30.75;9.88;;;7.80;99.90;;;;;;4986924;28;20596;-75
2022/11/26 01:36:23;;;;;;;29.65;9.63;;;7.80;99.90;;;;;;4983868;28;20042;-75
2022/11/26 01:38:51;;;;;;;25.83;9.77;;;7.80;99.90;;;;;;4983080;28;20149;-75
2022/11/26 01:41:19;;;;;;;32.05;10.38;;;7.70;99.90;;;;;;4984370;28;20036;-75
2022/11/26 01:43:48;;;;;;;23.83;8.35;;;7.70;99.90;;;;;;4984050;28;20045;-75
2022/11/26 01:46:18;;;;;;;17.88;7.78;;;7.70;99.90;;;;;;4985579;28;20023;-74
2022/11/26 01:48:45;;;;;;;28.70;8.00;;;7.60;99.90;;;;;;4982735;28;20677;-76
2022/11/26 01:51:14;;;;;;;21.15;8.13;;;7.40;99.90;;;;;;4984476;28;20116;-75
2022/11/26 01:54:05;;;;;;;22.77;7.45;;;7.40;99.90;;;;;;4997022;28;20018;-76
2022/11/26 01:56:43;;;;;;;18.75;7.00;;;7.40;99.90;;;;;;4983849;28;20027;-75
2022/11/26 01:59:25;;;;;;;19.13;6.80;;;7.30;99.90;;;;;;4981899;28;20041;-76
2022/11/26 02:01:54;;;;;;;24.42;7.63;;;7.20;99.90;;;;;;4984614;28;20022;-75
2022/11/26 02:04:41;;;;;;;18.92;7.28;;;7.10;99.90;;;;;;4974135;28;20039;-74
2022/11/26 02:07:07;;;;;;;20.08;8.48;;;7.10;99.90;;;;;;4982589;28;20058;-75
2022/11/26 02:09:33;;;;;;;22.90;8.05;;;7.10;99.90;;;;;;4982670;28;20074;-75
2022/11/26 02:11:59;;;;;;;21.65;8.80;;;7.10;99.90;;;;;;4985418;28;20109;-74
2022/11/26 02:14:42;;;;;;;19.58;8.63;;;7.10;99.90;;;;;;4983787;28;20197;-75
2022/11/26 02:17:27;;;;;;;29.02;9.15;;;7.10;99.90;;;;;;4981158;28;20109;-75
2022/11/26 02:20:16;;;;;;;23.50;8.55;;;7.10;99.90;;;;;;4984625;28;20113;-74
2022/11/26 02:22:54;;;;;;;25.80;8.05;;;7.10;99.90;;;;;;4989850;28;20034;-73
2022/11/26 02:25:38;;;;;;;21.90;8.75;;;7.10;99.90;;;;;;4987570;28;20113;-75
2022/11/26 02:28:34;;;;;;;25.17;8.57;;;7.00;99.90;;;;;;4999752;28;20042;-74
2022/11/26 02:31:12;;;;;;;26.85;9.45;;;7.00;99.90;;;;;;4983137;28;20491;-74
2022/11/26 02:33:51;;;;;;;31.90;8.93;;;7.00;99.90;;;;;;5002284;28;20111;-74
2022/11/26 02:36:44;;;;;;;16.25;9.27;;;7.00;99.90;;;;;;4985277;28;20546;-75
2022/11/26 02:39:12;;;;;;;;;;;7.00;99.90;;;;;;4982891;28;20110;-75
2022/11/26 02:41:44;;;;;;;29.83;8.85;;;7.00;99.90;;;;;;4986011;28;20111;-74
2022/11/26 02:44:10;;;;;;;27.83;9.10;;;7.00;99.90;;;;;;4984933;28;20037;-75
2022/11/26 02:46:39;;;;;;;22.65;9.35;;;6.90;99.90;;;;;;4987377;28;20046;-74
2022/11/26 02:49:05;;;;;;;37.33;9.75;;;6.90;99.90;;;;;;4982703;28;20129;-75
2022/11/26 02:51:31;;;;;;;28.90;9.77;;;6.80;99.90;;;;;;4987474;28;20416;-74
2022/11/26 02:53:58;;;;;;;25.42;9.95;;;6.90;99.90;;;;;;4985287;28;20039;-74
2022/11/26 02:56:26;;;;;;;31.30;9.82;;;6.80;99.90;;;;;;4985406;28;20026;-75
2022/11/26 02:58:53;;;;;;;41.20;9.50;;;6.80;99.90;;;;;;4985335;28;20023;-75
2022/11/26 03:01:28;;;;;;;22.40;9.73;;;6.80;99.90;;;;;;4988988;28;20034;-74
2022/11/26 03:03:57;;;;;;;28.15;10.10;;;6.80;99.90;;;;;;4987594;28;20030;-75
2022/11/26 03:06:24;;;;;;;31.42;10.30;;;6.80;99.90;;;;;;4984623;28;20033;-75
2022/11/26 03:08:53;;;;;;;21.23;9.60;;;6.80;99.90;;;;;;4984881;28;20515;-75
2022/11/26 03:11:19;;;;;;;19.15;8.65;;;6.80;99.90;;;;;;4983491;28;20351;-74
2022/11/26 03:13:48;;;;;;;36.60;9.73;;;6.80;99.90;;;;;;4987347;28;20042;-74
2022/11/26 03:16:15;;;;;;;22.23;8.90;;;6.80;99.90;;;;;;4989801;28;20622;-75
2022/11/26 03:18:41;;;;;;;31.30;10.02;;;6.80;99.90;;;;;;4983707;28;20412;-75
2022/11/26 03:21:09;;;;;;;18.05;9.13;;;6.80;99.90;;;;;;4985340;28;20105;-75
2022/11/26 03:23:37;;;;;;;31.15;8.73;;;6.80;99.90;;;;;;4986776;28;20052;-74
2022/11/26 03:26:03;;;;;;;24.67;8.55;;;6.70;99.90;;;;;;4982505;28;20052;-75
2022/11/26 03:28:31;;;;;;;29.70;10.00;;;6.70;99.90;;;;;;4982979;28;20026;-75
2022/11/26 03:30:56;;;;;;;24.42;9.38;;;6.70;99.90;;;;;;4986464;28;20030;-75
2022/11/26 03:33:24;;;;;;;21.90;9.80;;;6.70;99.90;;;;;;4982094;28;20029;-75
2022/11/26 03:35:52;;;;;;;25.02;9.93;;;6.60;99.90;;;;;;4997825;28;20090;-75
2022/11/26 03:38:18;;;;;;;22.73;9.68;;;6.60;99.90;;;;;;4988849;28;20026;-74
2022/11/26 03:40:44;;;;;;;28.67;10.10;;;6.60;99.90;;;;;;4993138;28;20041;-75
2022/11/26 03:43:10;;;;;;;32.70;10.55;;;6.60;99.90;;;;;;4988449;28;20995;-75
2022/11/26 03:45:37;;;;;;;24.20;10.63;;;6.60;99.90;;;;;;4987807;28;20026;-74
2022/11/26 03:48:03;;;;;;;28.00;10.07;;;6.60;99.90;;;;;;4987859;28;20034;-75
2022/11/26 03:50:29;;;;;;;26.00;10.93;;;6.50;99.90;;;;;;4982864;28;20045;-73
2022/11/26 03:52:55;;;;;;;23.48;10.98;;;6.50;99.90;;;;;;4983986;28;20026;-75
2022/11/26 03:55:22;;;;;;;42.40;10.35;;;6.50;99.90;;;;;;4986048;28;20022;-75
2022/11/26 03:57:50;;;;;;;27.98;10.65;;;6.50;99.90;;;;;;4985976;28;20026;-75
2022/11/26 04:00:17;;;;;;;29.50;10.38;;;6.50;99.90;;;;;;4980765;28;20046;-75
2022/11/26 04:02:42;;;;;;;32.25;10.82;;;6.50;99.90;;;;;;4984197;28;20027;-75
2022/11/26 04:05:10;;;;;;;24.23;9.45;;;6.50;99.90;;;;;;4981264;28;20080;-74
2022/11/26 04:07:36;;;;;;;27.50;10.10;;;6.50;99.90;;;;;;4980938;28;20027;-74
2022/11/26 04:10:02;;;;;;;34.05;9.85;;;6.50;99.90;;;;;;4985412;28;20476;-75
2022/11/26 04:12:28;;;;;;;27.65;9.60;;;6.60;99.90;;;;;;4992878;28;20105;-75
2022/11/26 04:14:53;;;;;;;25.40;9.63;;;6.60;99.90;;;;;;4986573;28;20113;-76
2022/11/26 04:17:19;;;;;;;23.23;10.02;;;6.60;99.90;;;;;;4985160;28;20062;-76
2022/11/26 04:19:44;;;;;;;29.20;10.38;;;6.50;99.90;;;;;;4983803;28;20364;-75
2022/11/26 04:22:10;;;;;;;27.17;9.65;;;6.50;99.90;;;;;;4991596;28;20424;-76
2022/11/26 04:24:38;;;;;;;42.30;10.20;;;6.60;99.90;;;;;;4987189;28;20034;-77
2022/11/26 04:27:08;;;;;;;30.65;8.63;;;6.60;99.90;;;;;;4985869;28;20137;-75
2022/11/26 04:29:36;;;;;;;25.45;9.07;;;6.60;99.90;;;;;;4983424;28;20743;-77
2022/11/26 04:32:03;;;;;;;29.33;9.48;;;6.60;99.90;;;;;;4986079;28;20177;-77
2022/11/26 04:34:28;;;;;;;29.25;9.52;;;6.60;99.90;;;;;;4982923;28;20447;-75
2022/11/26 04:36:54;;;;;;;22.02;8.90;;;6.60;99.90;;;;;;4982838;28;20027;-77
2022/11/26 04:39:20;;;;;;;31.83;9.85;;;6.50;99.90;;;;;;4982605;28;20023;-73
2022/11/26 04:41:46;;;;;;;23.95;8.82;;;6.50;99.90;;;;;;4984550;28;20038;-76
2022/11/26 04:44:11;;;;;;;26.08;9.05;;;6.50;99.90;;;;;;4985971;28;20054;-75
2022/11/26 04:46:37;;;;;;;23.73;8.38;;;6.40;99.90;;;;;;4989444;28;20026;-75
2022/11/26 04:49:03;;;;;;;32.53;9.38;;;6.40;99.90;;;;;;4989702;28;20042;-75
2022/11/26 04:51:28;;;;;;;32.15;9.43;;;6.50;99.90;;;;;;4984982;28;20033;-75
2022/11/26 04:53:54;;;;;;;19.98;8.80;;;6.50;99.90;;;;;;4984617;28;20091;-75
2022/11/26 04:56:20;;;;;;;22.55;9.55;;;6.50;99.90;;;;;;4981028;28;20022;-75
2022/11/26 04:58:45;;;;;;;24.13;8.43;;;6.50;99.90;;;;;;4986669;28;20337;-75
2022/11/26 05:01:11;;;;;;;25.80;9.43;;;6.50;99.90;;;;;;4980340;28;20035;-74
2022/11/26 05:03:39;;;;;;;26.52;8.68;;;6.50;99.90;;;;;;4984309;28;20081;-74
2022/11/26 05:06:05;;;;;;;29.85;9.15;;;6.50;99.90;;;;;;4982934;28;20031;-75
2022/11/26 05:08:33;;;;;;;24.98;9.18;;;6.50;99.90;;;;;;4983607;28;20117;-75
2022/11/26 05:11:00;;;;;;;25.20;8.98;;;6.50;99.90;;;;;;4982915;28;20038;-75
2022/11/26 05:13:28;;;;;;;27.10;8.88;;;6.50;99.90;;;;;;4988800;28;20022;-75
2022/11/26 05:15:54;;;;;;;23.27;9.63;;;6.50;99.90;;;;;;4984680;28;20100;-75
2022/11/26 05:18:20;;;;;;;22.02;9.38;;;6.50;99.90;;;;;;4983144;28;20113;-75
2022/11/26 05:20:45;;;;;;;32.10;9.32;;;6.50;99.90;;;;;;4987217;28;20428;-75
2022/11/26 05:23:11;;;;;;;36.53;9.20;;;6.60;99.90;;;;;;4982458;28;20353;-75
2022/11/26 05:25:39;;;;;;;32.38;9.48;;;6.60;99.90;;;;;;4981864;28;20468;-73
2022/11/26 05:28:05;;;;;;;32.50;9.82;;;6.60;99.90;;;;;;4987165;28;20045;-75
2022/11/26 05:30:31;;;;;;;21.73;9.52;;;6.60;99.90;;;;;;4985625;28;20429;-75
2022/11/26 05:32:59;;;;;;;27.75;9.48;;;6.60;99.90;;;;;;4983609;28;20045;-76
2022/11/26 05:35:25;;;;;;;35.80;9.25;;;6.60;99.90;;;;;;4982384;28;20126;-75
2022/11/26 05:37:50;;;;;;;22.70;8.60;;;6.60;99.90;;;;;;4984929;28;20102;-75
2022/11/26 05:40:18;;;;;;;36.95;10.32;;;6.50;99.90;;;;;;4984903;28;20037;-71
2022/11/26 05:42:44;;;;;;;26.52;9.80;;;6.50;99.90;;;;;;4982279;28;20341;-75
2022/11/26 05:45:12;;;;;;;25.63;10.00;;;6.50;99.90;;;;;;4984149;28;20026;-75
2022/11/26 05:47:40;;;;;;;27.10;9.50;;;6.50;99.90;;;;;;4980959;28;20531;-75
2022/11/26 05:50:06;;;;;;;19.73;8.75;;;6.60;99.90;;;;;;4982436;28;20030;-75
2022/11/26 05:52:32;;;;;;;26.58;9.05;;;6.60;99.90;;;;;;4981104;28;20034;-75
2022/11/26 05:54:58;;;;;;;28.17;9.10;;;6.60;99.90;;;;;;4981920;28;20019;-75
2022/11/26 05:57:23;;;;;;;22.15;8.80;;;6.50;99.90;;;;;;4980830;28;20022;-74
2022/11/26 05:59:49;;;;;;;30.83;9.38;;;6.60;99.90;;;;;;4982212;28;20352;-75
2022/11/26 06:02:15;;;;;;;17.63;8.93;;;6.50;99.90;;;;;;4984254;28;20456;-75
2022/11/26 06:04:43;;;;;;;28.90;9.38;;;6.50;99.90;;;;;;4981529;28;20506;-75
2022/11/26 06:07:09;;;;;;;29.38;9.05;;;6.60;99.90;;;;;;4986008;28;20027;-75
2022/11/26 06:09:35;;;;;;;25.67;8.52;;;6.60;99.90;;;;;;4999882;28;20092;-73
2022/11/26 06:12:01;;;;;;;25.90;9.00;;;6.60;99.90;;;;;;4982072;28;20095;-75
2022/11/26 06:14:29;;;;;;;31.67;9.50;;;6.60;99.90;;;;;;4986958;28;20027;-75
2022/11/26 06:16:54;;;;;;;28.70;8.65;;;6.50;99.90;;;;;;4981071;28;20062;-70
2022/11/26 06:19:20;;;;;;;24.17;8.55;;;6.50;99.90;;;;;;4985998;28;20083;-71
2022/11/26 06:21:46;;;;;;;26.92;9.18;;;6.50;99.90;;;;;;4982411;28;20714;-75
2022/11/26 06:24:11;;;;;;;31.75;9.05;;;6.60;99.90;;;;;;4983977;28;20026;-74
2022/11/26 06:26:37;;;;;;;33.70;8.73;;;6.60;99.90;;;;;;4982913;28;20154;-77
2022/11/26 06:29:05;;;;;;;25.17;9.15;;;6.60;99.90;;;;;;4978369;28;20516;-77
2022/11/26 06:31:31;;;;;;;29.55;10.07;;;6.50;99.90;;;;;;4985983;28;20034;-75
2022/11/26 06:33:58;;;;;;;24.08;9.40;;;6.40;99.90;;;;;;4982305;28;20033;-74
2022/11/26 06:36:26;;;;;;;23.10;9.18;;;6.40;99.90;;;;;;4981988;28;20038;-73
2022/11/26 06:38:52;;;;;;;30.10;9.18;;;6.30;99.90;;;;;;4985597;28;20169;-76
2022/11/26 06:41:17;;;;;;;24.92;8.60;;;6.30;99.90;;;;;;4994137;28;20090;-75
2022/11/26 06:43:43;;;;;;;27.42;9.63;;;6.30;99.90;;;;;;4987564;28;20054;-75
2022/11/26 06:46:10;;;;;;;27.33;8.93;;;6.30;99.90;;;;;;4987638;28;20041;-75
2022/11/26 06:48:36;;;;;;;32.72;9.32;;;6.30;99.90;;;;;;4985481;28;20041;-73
2022/11/26 06:51:07;;;;;;;20.15;7.47;;;6.30;99.90;;;;;;4984868;28;20109;-76
2022/11/26 06:53:34;;;;;;;29.27;9.13;;;6.30;99.90;;;;;;4981515;28;20027;-73
2022/11/26 06:56:03;;;;;;;30.17;9.43;;;6.30;99.90;;;;;;4984500;28;20037;-75
2022/11/26 06:58:31;;;;;;;33.90;10.15;;;6.30;99.90;;;;;;4995790;28;20030;-75
2022/11/26 07:00:57;;;;;;;31.55;8.98;;;6.30;99.90;;;;;;4984713;28;20054;-74
2022/11/26 07:03:26;;;;;;;27.67;10.02;;;6.30;99.90;;;;;;4983217;28;20361;-75
2022/11/26 07:05:52;;;;;;;27.15;10.90;;;6.30;99.90;;;;;;4986963;28;20042;-75
2022/11/26 07:08:20;;;;;;;34.65;10.57;;;6.30;99.90;;;;;;4983142;28;20376;-75
2022/11/26 07:10:45;;;;;;;40.63;10.75;;;6.30;99.90;;;;;;4984445;28;20027;-71
2022/11/26 07:13:13;;;;;;;36.55;11.90;;;6.30;99.90;;;;;;4986261;28;20026;-75
2022/11/26 07:15:39;;;;;;;39.75;11.95;;;6.40;99.90;;;;;;4985693;28;20547;-78
2022/11/26 07:18:05;;;;;;;42.15;13.40;;;6.30;99.90;;;;;;4984788;28;20121;-74
2022/11/26 07:20:30;;;;;;;38.30;11.50;;;6.30;99.90;;;;;;4985700;28;20119;-75
2022/11/26 07:22:56;;;;;;;29.08;11.57;;;6.30;99.90;;;;;;5001413;28;20035;-74
2022/11/26 07:25:21;;;;;;;48.13;11.80;;;6.40;99.90;;;;;;4988200;28;20371;-76
2022/11/26 07:27:47;;;;;;;43.00;11.80;;;6.40;99.90;;;;;;4986900;28;20034;-74
2022/11/26 07:30:15;;;;;;;38.45;13.60;;;6.40;99.90;;;;;;4986169;28;20041;-74
2022/11/26 07:32:43;;;;;;;37.90;13.13;;;6.40;99.90;;;;;;4999909;28;20019;-75
2022/11/26 07:35:11;;;;;;;46.60;12.15;;;6.40;99.90;;;;;;4983470;28;20040;-75
2022/11/26 07:37:37;;;;;;;33.42;10.95;;;6.40;99.90;;;;;;4986140;28;20038;-75
2022/11/26 07:40:05;;;;;;;33.22;10.65;;;6.40;99.90;;;;;;4986217;28;20030;-77
2022/11/26 07:42:32;;;;;;;27.88;10.55;;;6.40;99.90;;;;;;4999648;28;20416;-75
2022/11/26 07:44:58;;;;;;;26.42;10.75;;;6.40;99.90;;;;;;5001700;28;20031;-76
2022/11/26 07:47:24;;;;;;;25.98;11.05;;;6.50;99.90;;;;;;4982107;28;20164;-76
2022/11/26 07:49:50;;;;;;;32.63;10.82;;;6.50;99.90;;;;;;4985440;28;20031;-76
2022/11/26 07:52:15;;;;;;;32.33;9.70;;;6.60;99.90;;;;;;4984506;28;20037;-76
2022/11/26 07:54:43;;;;;;;27.55;10.10;;;6.60;99.90;;;;;;4981560;28;20123;-75
2022/11/26 07:57:10;;;;;;;28.67;10.02;;;6.70;99.90;;;;;;5001811;28;20482;-76
2022/11/26 07:59:35;;;;;;;29.33;9.20;;;6.70;99.90;;;;;;4988848;28;20096;-74
2022/11/26 08:02:06;;;;;;;33.08;9.07;;;6.80;99.90;;;;;;4987621;28;20069;-76
2022/11/26 08:04:31;;;;;;;23.08;8.90;;;6.70;99.90;;;;;;4986593;28;20031;-76
2022/11/26 08:06:57;;;;;;;26.90;9.77;;;6.70;99.90;;;;;;5000722;28;20049;-75
2022/11/26 08:09:23;;;;;;;39.03;9.52;;;6.70;99.90;;;;;;4985051;28;20038;-74
2022/11/26 08:11:51;;;;;;;25.60;9.27;;;6.80;99.90;;;;;;5005075;28;20050;-76
2022/11/26 08:14:16;;;;;;;34.72;9.60;;;6.90;99.90;;;;;;5003762;28;20030;-76
2022/11/26 08:16:43;;;;;;;29.55;10.40;;;6.90;99.90;;;;;;4983986;28;20034;-74
2022/11/26 08:19:11;;;;;;;19.70;7.85;;;6.90;99.90;;;;;;4985154;28;20041;-73
2022/11/26 08:21:38;;;;;;;28.13;9.40;;;6.90;99.90;;;;;;4982657;28;20034;-75
2022/11/26 08:24:07;;;;;;;32.53;9.20;;;7.00;99.90;;;;;;4984946;28;20026;-75
2022/11/26 08:26:33;;;;;;;28.45;8.60;;;7.10;99.90;;;;;;4984473;28;20035;-77
2022/11/26 08:28:59;;;;;;;25.08;8.73;;;7.10;99.90;;;;;;4987125;28;20475;-74
2022/11/26 08:31:26;;;;;;;21.90;8.63;;;7.20;99.90;;;;;;4985759;28;20034;-75
2022/11/26 08:33:55;;;;;;;26.50;8.75;;;7.20;99.90;;;;;;4985328;28;20061;-76
2022/11/26 08:36:21;;;;;;;33.55;9.30;;;7.30;99.90;;;;;;4989877;28;20043;-74
2022/11/26 08:38:46;;;;;;;30.85;8.32;;;7.40;99.90;;;;;;4985857;28;20520;-75
2022/11/26 08:41:13;;;;;;;25.13;9.13;;;7.40;99.90;;;;;;4985923;28;20143;-75
2022/11/26 08:43:39;;;;;;;23.55;8.48;;;7.50;99.90;;;;;;4988678;28;20458;-75
2022/11/26 08:46:08;;;;;;;22.13;7.90;;;7.50;99.90;;;;;;4988758;28;20115;-75
2022/11/26 08:48:33;;;;;;;30.58;9.57;;;7.50;99.90;;;;;;4986827;28;20157;-75
2022/11/26 08:51:05;;;;;;;32.30;9.30;;;7.60;99.90;;;;;;4984066;28;20125;-75
2022/11/26 08:53:34;;;;;;;29.00;9.20;;;7.70;99.90;;;;;;5003671;28;20084;-74
2022/11/26 08:56:05;;;;;;;27.48;8.90;;;7.60;99.90;;;;;;4987196;28;20125;-74
2022/11/26 08:58:43;;;;;;;24.67;8.15;;;7.80;99.90;;;;;;4985735;28;20019;-78
2022/11/26 09:01:21;;;;;;;24.55;8.25;;;7.70;99.90;;;;;;4987018;28;20341;-75
2022/11/26 09:03:51;;;;;;;34.63;9.10;;;7.90;99.90;;;;;;4982889;28;20029;-74
2022/11/26 09:06:21;;;;;;;31.65;9.52;;;8.00;99.90;;;;;;4986990;28;20026;-73
2022/11/26 09:11:33;;;;;;;23.02;8.48;;;8.10;99.90;;;;;;4987128;28;20126;-77
2022/11/26 09:13:59;;;;;;;25.20;8.88;;;8.20;99.90;;;;;;4987774;28;20035;-75
2022/11/26 09:16:25;;;;;;;25.67;8.45;;;8.30;99.90;;;;;;4985031;28;20337;-76
2022/11/26 09:18:51;;;;;;;29.65;9.75;;;8.30;99.90;;;;;;4987654;28;20015;-77
2022/11/26 09:21:18;;;;;;;34.53;10.60;;;8.40;99.90;;;;;;4988580;28;20041;-77
2022/11/26 09:23:43;;;;;;;27.70;9.10;;;8.50;99.90;;;;;;4990290;28;20031;-77
2022/11/26 09:26:09;;;;;;;28.08;8.35;;;8.50;99.90;;;;;;4984097;28;20042;-76
2022/11/26 09:28:35;;;;;;;18.85;7.75;;;8.50;99.90;;;;;;4988072;28;20055;-74
2022/11/26 09:31:01;;;;;;;23.70;8.45;;;8.70;99.90;;;;;;4987648;28;20030;-77
2022/11/26 09:33:31;;;;;;;26.27;8.93;;;8.80;99.90;;;;;;4985465;28;20092;-74
2022/11/26 09:36:04;;;;;;;25.60;8.90;;;8.90;99.90;;;;;;4989680;28;20300;-75
2022/11/26 09:38:33;;;;;;;21.75;8.95;;;9.00;99.90;;;;;;4987963;28;20025;-78
2022/11/26 09:41:17;;;;;;;26.15;9.50;;;9.00;99.90;;;;;;4984490;28;20038;-76
2022/11/26 09:43:55;;;;;;;21.85;9.25;;;9.10;99.90;;;;;;5003540;28;20113;-77
2022/11/26 09:46:30;;;;;;;22.95;9.38;;;9.10;99.90;;;;;;4982829;28;20046;-72
2022/11/26 09:48:58;;;;;;;28.02;9.75;;;9.20;99.90;;;;;;4985871;28;20086;-74
2022/11/26 09:51:24;;;;;;;21.55;9.68;;;9.20;99.90;;;;;;4983548;28;20463;-74
2022/11/26 09:53:53;;;;;;;27.33;9.93;;;9.30;99.90;;;;;;4984866;28;20069;-75
2022/11/26 09:56:26;;;;;;;33.75;9.65;;;9.30;99.90;;;;;;4984026;28;20025;-76
2022/11/26 09:59:05;;;;;;;31.33;10.18;;;9.30;99.90;;;;;;4970209;28;20046;-73
2022/11/26 10:01:33;;;;;;;35.03;9.80;;;9.50;99.90;;;;;;4986199;28;21172;-76
2022/11/26 10:03:59;;;;;;;30.30;10.75;;;9.50;99.90;;;;;;4984255;28;20128;-75
2022/11/26 10:06:34;;;;;;;31.90;10.80;;;9.60;99.90;;;;;;4982224;28;20331;-75
2022/11/26 10:09:54;;;;;;;21.58;10.00;;;9.50;99.90;;;;;;4981466;28;20104;-76
2022/11/26 10:12:43;;;;;;;29.55;10.30;;;9.50;99.90;;;;;;4981957;28;20526;-74
2022/11/26 10:15:09;;;;;;;37.45;10.63;;;9.20;99.90;;;;;;4983912;28;20034;-75
2022/11/26 10:18:01;;;;;;;20.25;9.23;;;9.40;99.90;;;;;;4984452;28;20053;-75
2022/11/26 10:20:46;;;;;;;28.60;9.60;;;9.30;99.90;;;;;;4983235;28;20034;-75
2022/11/26 10:23:14;;;;;;;26.75;8.85;;;9.30;99.90;;;;;;4983481;28;20030;-75
2022/11/26 10:25:49;;;;;;;26.40;9.93;;;9.30;99.90;;;;;;4984043;28;20027;-75
2022/11/26 10:28:38;;;;;;;24.38;9.60;;;9.40;99.90;;;;;;4984443;28;20034;-75
2022/11/26 10:31:16;;;;;;;23.70;9.07;;;9.50;99.90;;;;;;4982429;28;20046;-74
2022/11/26 10:34:11;;;;;;;29.48;10.88;;;9.60;99.90;;;;;;4985391;28;20026;-75
2022/11/26 10:36:39;;;;;;;33.67;10.45;;;9.70;99.90;;;;;;4972657;28;20051;-75
2022/11/26 10:39:06;;;;;;;34.80;11.00;;;9.90;99.90;;;;;;4986034;28;20014;-75
2022/11/26 10:41:36;;;;;;;30.27;10.45;;;9.90;99.90;;;;;;4982388;28;20427;-75
2022/11/26 10:44:32;;;;;;;25.27;10.35;;;9.90;99.90;;;;;;4982678;28;20029;-76
2022/11/26 10:47:08;;;;;;;28.50;9.60;;;9.90;99.90;;;;;;4984523;28;20094;-75
2022/11/26 10:49:36;;;;;;;25.85;9.60;;;10.00;99.90;;;;;;4982912;28;20626;-76
2022/11/26 10:52:07;;;;;;;23.05;9.80;;;9.80;99.90;;;;;;4987459;28;20026;-75
2022/11/26 10:54:37;;;;;;;23.73;9.43;;;10.00;99.90;;;;;;4987085;28;20034;-74
2022/11/26 10:57:09;;;;;;;25.23;9.57;;;10.10;99.90;;;;;;4986443;28;20022;-73
2022/11/26 10:59:47;;;;;;;33.67;9.25;;;10.10;99.90;;;;;;5002225;28;20023;-74
2022/11/26 11:02:18;;;;;;;25.25;9.68;;;10.20;99.90;;;;;;4984947;28;20049;-76
2022/11/26 11:04:49;;;;;;;32.28;9.48;;;10.00;99.90;;;;;;5003537;28;20026;-73
2022/11/26 11:07:36;;;;;;;29.70;9.73;;;10.10;99.90;;;;;;4988330;28;20061;-74
2022/11/26 11:10:08;;;;;;;33.88;10.07;;;10.30;99.90;;;;;;4990051;28;20028;-75
2022/11/26 11:12:41;;;;;;;29.77;9.77;;;10.30;99.90;;;;;;5003685;28;20018;-75
2022/11/26 11:15:23;;;;;;;;;;;10.30;99.90;;;;;;4988521;28;20062;-76
2022/11/26 11:18:03;;;;;;;28.05;10.32;;;10.10;99.90;;;;;;5001881;28;20637;-78
2022/11/26 11:20:29;;;;;;;27.42;9.65;;;10.20;99.90;;;;;;4986913;28;20065;-76
2022/11/26 11:23:09;;;;;;;27.80;9.55;;;10.40;99.90;;;;;;4989444;28;20405;-76
2022/11/26 11:25:38;;;;;;;20.30;9.13;;;10.50;99.90;;;;;;4989403;28;20133;-75
2022/11/26 11:28:15;;;;;;;25.65;9.95;;;10.20;99.90;;;;;;4987160;28;20026;-75
2022/11/26 11:30:43;;;;;;;21.80;9.10;;;10.40;99.90;;;;;;4990088;28;20041;-77
2022/11/26 11:33:21;;;;;;;28.30;9.98;;;10.30;99.90;;;;;;4990239;28;20469;-73
2022/11/26 11:35:59;;;;;;;27.33;9.63;;;10.30;99.90;;;;;;4990610;28;20426;-73
2022/11/26 11:38:28;;;;;;;27.30;9.38;;;10.30;99.90;;;;;;4988150;28;20027;-74
2022/11/26 11:40:53;;;;;;;25.33;9.43;;;10.40;99.90;;;;;;4990828;28;20045;-74
2022/11/26 11:43:22;;;;;;;28.42;10.05;;;10.50;99.90;;;;;;4989521;28;20114;-72
2022/11/26 11:45:54;;;;;;;24.80;8.73;;;10.60;99.90;;;;;;4988847;28;20034;-75
2022/11/26 11:48:52;;;;;;;22.52;9.10;;;10.70;99.90;;;;;;4985362;28;20172;-74
2022/11/26 11:51:55;;;;;;;22.75;8.45;;;10.80;99.90;;;;;;4986152;28;20034;-74
2022/11/26 11:54:28;;;;;;;35.33;9.65;;;11.00;99.90;;;;;;5003881;28;20521;-74
2022/11/26 11:57:18;;;;;;;27.35;7.95;;;11.10;99.90;;;;;;4988260;28;20118;-74
2022/11/26 12:00:12;;;;;;;25.85;8.60;;;11.10;99.90;;;;;;4988336;28;21432;-76
2022/11/26 12:03:12;;;;;;;28.30;8.80;;;11.00;99.90;;;;;;4988030;28;20030;-74
2022/11/26 12:05:38;;;;;;;24.75;9.40;;;11.10;99.90;;;;;;4984775;28;20031;-71
2022/11/26 12:08:22;;;;;;;30.35;8.30;;;11.20;99.90;;;;;;4999414;28;20168;-70
2022/11/26 12:10:48;;;;;;;25.48;7.97;;;11.40;99.90;;;;;;4986335;28;20034;-71
2022/11/26 12:13:15;;;;;;;28.83;8.75;;;11.60;99.90;;;;;;4984487;28;20456;-71
2022/11/26 12:15:54;;;;;;;20.20;8.15;;;11.50;99.90;;;;;;4985102;28;20026;-74
2022/11/26 12:18:20;;;;;;;26.30;8.30;;;11.50;99.90;;;;;;4986894;28;20108;-71
2022/11/26 12:20:53;;;;;;;28.48;8.63;;;11.60;99.90;;;;;;4989279;28;20109;-72
2022/11/26 12:23:27;;;;;;;25.17;8.07;;;11.50;99.90;;;;;;4983530;28;20061;-71
2022/11/26 12:26:05;;;;;;;23.13;7.82;;;11.70;99.90;;;;;;4990117;28;20436;-71
2022/11/26 12:28:37;;;;;;;20.98;7.85;;;11.90;99.90;;;;;;4986048;28;20332;-72
2022/11/26 12:31:23;;;;;;;24.42;6.60;;;11.80;99.90;;;;;;4984582;28;20027;-72
2022/11/26 12:33:59;;;;;;;26.42;8.18;;;11.90;99.90;;;;;;4989872;28;20038;-71
2022/11/26 12:36:39;;;;;;;24.35;7.72;;;12.00;99.90;;;;;;4989394;28;20022;-72
2022/11/26 12:39:36;;;;;;;20.17;6.47;;;11.90;99.90;;;;;;4985723;28;20034;-70
2022/11/26 12:42:21;;;;;;;22.40;6.57;;;12.00;99.90;;;;;;4982958;28;20116;-72
2022/11/26 12:44:57;;;;;;;20.67;7.53;;;11.90;99.90;;;;;;4987627;28;20031;-71
2022/11/26 12:47:38;;;;;;;19.25;7.82;;;11.70;99.90;;;;;;4992547;28;20113;-72
2022/11/26 12:50:19;;;;;;;31.55;7.95;;;11.80;99.90;;;;;;4985896;28;20030;-74
2022/11/26 12:53:18;;;;;;;23.00;7.32;;;11.80;99.90;;;;;;4986707;28;20815;-72
2022/11/26 12:56:08;;;;;;;24.30;6.55;;;11.70;99.90;;;;;;4991859;28;20157;-70
2022/11/26 12:58:36;;;;;;;31.73;7.03;;;11.80;99.90;;;;;;4994429;28;20512;-71
2022/11/26 13:01:04;;;;;;;32.00;7.70;;;11.80;99.90;;;;;;4991044;28;20473;-75
2022/11/26 13:03:33;;;;;;;18.05;6.65;;;11.80;99.90;;;;;;4984968;28;20045;-71